Time;durP1;ratioP1;P1;durP2;ratioP2;P2;SDS_P1;SDS_P2;PMS_P1;PMS_P2;Temp;Humidity;BMP_temperature;BMP_pressure;BME280_temperature;BME280_humidity;BME280_pressure;Samples;Min_cycle;Max_cycle;Signal;HPM_P1;HPM_P2
2022/12/25 00:00:54;;;;;;;3.70;2.50;;;9.90;99.90;;;;;;5115823;28;20474;-54
2022/12/25 00:03:21;;;;;;;3.70;3.03;;;9.90;99.90;;;;;;5115850;28;20434;-54
2022/12/25 00:05:48;;;;;;;2.70;2.30;;;9.90;99.90;;;;;;5115778;28;20443;-54
2022/12/25 00:08:15;;;;;;;3.00;2.80;;;9.90;99.90;;;;;;5115849;28;20478;-54
2022/12/25 00:10:42;;;;;;;4.27;2.60;;;9.80;99.90;;;;;;5115953;28;20466;-54
2022/12/25 00:13:10;;;;;;;6.10;2.80;;;9.90;99.90;;;;;;5115900;28;20447;-54
2022/12/25 00:15:40;;;;;;;5.23;2.70;;;9.90;99.90;;;;;;5115912;28;20448;-54
2022/12/25 00:18:08;;;;;;;4.60;2.53;;;9.90;99.90;;;;;;5115513;28;20427;-54
2022/12/25 00:20:36;;;;;;;3.00;2.80;;;9.90;99.90;;;;;;5115737;28;20469;-54
2022/12/25 00:23:03;;;;;;;3.00;2.80;;;9.90;99.90;;;;;;5115323;28;20941;-54
2022/12/25 00:25:30;;;;;;;3.70;2.60;;;9.90;99.90;;;;;;5115394;28;20956;-54
2022/12/25 00:27:57;;;;;;;3.87;3.57;;;9.90;99.90;;;;;;5115501;28;20820;-54
2022/12/25 00:30:24;;;;;;;4.73;3.00;;;9.90;99.90;;;;;;5115273;28;20835;-54
2022/12/25 00:32:51;;;;;;;3.10;2.80;;;9.90;99.90;;;;;;5115454;28;20480;-54
2022/12/25 00:35:20;;;;;;;4.60;3.03;;;9.90;99.90;;;;;;5115160;28;20524;-54
2022/12/25 00:37:47;;;;;;;4.93;3.40;;;9.90;99.90;;;;;;5115401;28;20803;-54
2022/12/25 00:40:14;;;;;;;2.73;2.53;;;9.90;99.90;;;;;;5115298;28;20469;-54
2022/12/25 00:42:41;;;;;;;3.77;2.60;;;9.90;99.90;;;;;;5114853;28;20480;-54
2022/12/25 00:45:09;;;;;;;5.77;5.10;;;10.00;99.90;;;;;;5115264;28;20454;-54
2022/12/25 00:47:36;;;;;;;3.60;3.30;;;9.90;99.90;;;;;;5115177;28;20482;-54
2022/12/25 00:50:03;;;;;;;7.37;3.37;;;9.90;99.90;;;;;;5115085;28;20486;-54
2022/12/25 00:52:32;;;;;;;4.00;3.47;;;9.90;99.90;;;;;;5115171;28;20442;-54
2022/12/25 00:54:59;;;;;;;3.70;2.70;;;9.90;99.90;;;;;;5114696;28;20454;-54
2022/12/25 00:57:27;;;;;;;4.20;3.00;;;9.90;99.90;;;;;;5115084;28;20802;-54
2022/12/25 00:59:54;;;;;;;4.43;3.10;;;9.90;99.90;;;;;;5114879;28;20462;-54
2022/12/25 01:02:24;;;;;;;3.37;2.97;;;10.00;99.90;;;;;;5114664;28;20447;-54
2022/12/25 01:04:52;;;;;;;3.80;2.90;;;9.90;99.90;;;;;;5115165;28;20453;-54
2022/12/25 01:07:20;;;;;;;3.93;3.00;;;9.90;99.90;;;;;;5114609;28;20445;-54
2022/12/25 01:12:36;;;;;;;6.17;2.93;;;10.00;99.90;;;;;;5114531;28;20406;-54
2022/12/25 01:15:04;;;;;;;4.20;2.90;;;10.00;99.90;;;;;;5114444;28;20450;-54
2022/12/25 01:17:31;;;;;;;4.30;2.90;;;10.00;99.90;;;;;;5114622;28;20438;-54
2022/12/25 01:19:58;;;;;;;9.90;2.87;;;10.00;99.90;;;;;;5114331;28;20467;-54
2022/12/25 01:22:25;;;;;;;4.20;2.70;;;10.00;99.90;;;;;;5114335;28;20451;-54
2022/12/25 01:24:54;;;;;;;3.50;3.17;;;10.00;99.90;;;;;;5114297;28;20449;-54
2022/12/25 01:27:21;;;;;;;3.53;3.20;;;10.00;99.90;;;;;;5114133;28;20442;-54
2022/12/25 01:29:48;;;;;;;4.00;3.10;;;10.00;99.90;;;;;;5114070;28;20821;-55
2022/12/25 01:32:15;;;;;;;4.20;3.80;;;10.00;99.90;;;;;;5114409;28;20446;-54
2022/12/25 01:34:43;;;;;;;3.37;3.07;;;10.00;99.90;;;;;;5114380;28;20443;-54
2022/12/25 01:37:11;;;;;;;4.90;3.23;;;10.00;99.90;;;;;;5114152;28;20465;-54
2022/12/25 01:39:38;;;;;;;4.83;3.50;;;10.00;99.90;;;;;;5113903;28;20473;-54
2022/12/25 01:42:10;;;;;;;4.77;3.67;;;9.90;99.90;;;;;;5113954;28;20813;-54
2022/12/25 01:45:13;;;;;;;2.90;2.60;;;9.90;99.90;;;;;;5113693;28;20432;-54
2022/12/25 01:47:40;;;;;;;9.10;5.30;;;9.90;99.90;;;;;;5080285;28;20488;-54
2022/12/25 01:50:08;;;;;;;6.13;3.27;;;9.90;99.90;;;;;;5114187;28;20462;-54
2022/12/25 01:52:35;;;;;;;7.90;3.40;;;9.90;99.90;;;;;;5113845;28;20447;-54
2022/12/25 01:55:04;;;;;;;3.87;3.37;;;9.90;99.90;;;;;;5113880;28;20438;-54
2022/12/25 01:57:34;;;;;;;3.83;3.40;;;9.90;99.90;;;;;;5113741;28;20453;-54
2022/12/25 02:00:02;;;;;;;5.30;3.73;;;9.90;99.90;;;;;;5113748;28;21013;-54
2022/12/25 02:02:29;;;;;;;5.87;3.60;;;9.90;99.90;;;;;;5113743;28;20959;-54
2022/12/25 02:05:02;;;;;;;4.77;4.30;;;9.90;99.90;;;;;;5114087;28;20815;-54
2022/12/25 02:07:32;;;;;;;7.07;4.57;;;9.90;99.90;;;;;;5113786;28;20944;-54
2022/12/25 02:09:59;;;;;;;6.23;4.63;;;9.80;99.90;;;;;;5113983;28;20512;-54
2022/12/25 02:12:29;;;;;;;4.60;4.10;;;9.80;99.90;;;;;;5113987;28;20465;-54
2022/12/25 02:15:00;;;;;;;6.70;4.23;;;9.80;99.90;;;;;;5114024;28;20807;-55
2022/12/25 02:17:35;;;;;;;8.00;4.23;;;9.80;99.90;;;;;;5114033;28;20423;-55
2022/12/25 02:20:32;;;;;;;4.90;4.40;;;9.80;99.90;;;;;;5113441;28;21082;-55
2022/12/25 02:23:12;;;;;;;6.57;4.63;;;9.80;99.90;;;;;;5113590;28;20913;-55
2022/12/25 02:25:53;;;;;;;6.77;4.03;;;9.80;99.90;;;;;;5113578;28;20430;-55
2022/12/25 02:28:28;;;;;;;5.67;4.03;;;9.80;99.90;;;;;;5113506;28;20462;-55
2022/12/25 02:31:01;;;;;;;4.53;4.13;;;9.80;99.90;;;;;;5113366;28;20468;-55
2022/12/25 02:36:22;;;;;;;5.80;4.23;;;9.80;99.90;;;;;;5113740;28;20777;-55
2022/12/25 02:41:44;;;;;;;4.40;3.70;;;9.80;99.90;;;;;;5113387;28;20465;-55
2022/12/25 03:06:45;;;;;;;4.10;3.73;;;9.80;99.90;;;;;;5116923;28;20399;-55
2022/12/25 03:12:08;;;;;;;4.63;4.30;;;9.80;99.90;;;;;;5117020;28;20822;-55
2022/12/25 03:17:21;;;;;;;8.97;5.00;;;9.90;99.90;;;;;;5116935;28;20772;-55
2022/12/25 03:28:04;;;;;;;5.50;4.30;;;9.70;99.90;;;;;;5116726;28;20809;-55
2022/12/25 03:33:35;;;;;;;5.07;4.60;;;9.80;99.90;;;;;;5116583;28;20513;-55
2022/12/25 03:36:11;;;;;;;6.70;4.80;;;9.80;99.90;;;;;;5116734;28;20426;-55
2022/12/25 04:37:18;;;;;;;3.87;3.57;;;9.60;99.90;;;;;;5115490;28;20458;-55
2022/12/25 04:39:47;;;;;;;3.53;3.27;;;9.60;99.90;;;;;;5115294;28;20463;-55
2022/12/25 04:42:14;;;;;;;6.47;4.00;;;9.60;99.90;;;;;;5114912;28;21025;-55
2022/12/25 04:44:41;;;;;;;4.80;4.30;;;9.60;99.90;;;;;;5115263;28;20468;-55
2022/12/25 04:47:08;;;;;;;7.00;5.70;;;9.60;99.90;;;;;;5114991;28;20457;-55
2022/12/25 04:49:35;;;;;;;3.87;3.57;;;9.70;99.90;;;;;;5114756;28;20486;-55
2022/12/25 04:52:02;;;;;;;3.93;3.63;;;9.70;99.90;;;;;;5115182;28;20443;-55
2022/12/25 04:54:29;;;;;;;3.80;3.30;;;9.70;99.90;;;;;;5115158;28;20446;-55
2022/12/25 04:56:58;;;;;;;3.80;3.37;;;9.70;99.90;;;;;;5114750;28;20447;-55
2022/12/25 04:59:25;;;;;;;4.00;3.70;;;9.70;99.90;;;;;;5114708;28;20459;-55
2022/12/25 05:01:52;;;;;;;3.70;3.40;;;9.70;99.90;;;;;;5114638;28;20447;-55
2022/12/25 05:04:19;;;;;;;3.40;3.20;;;9.70;99.90;;;;;;5114776;28;20431;-55
2022/12/25 05:06:46;;;;;;;3.97;3.33;;;9.70;99.90;;;;;;5114429;28;20936;-54
2022/12/25 05:09:13;;;;;;;4.60;3.30;;;9.70;99.90;;;;;;5114928;28;20516;-55
2022/12/25 05:11:40;;;;;;;3.43;2.93;;;9.70;99.90;;;;;;5114499;28;20530;-55
2022/12/25 05:14:09;;;;;;;4.47;3.20;;;9.70;99.90;;;;;;5114787;28;20447;-55
2022/12/25 05:16:36;;;;;;;4.87;3.77;;;9.70;99.90;;;;;;5114406;28;20454;-55
2022/12/25 05:19:03;;;;;;;3.90;3.23;;;9.70;99.90;;;;;;5114197;28;20427;-55
2022/12/25 05:21:30;;;;;;;4.10;3.43;;;9.80;99.90;;;;;;5114063;28;20453;-55
2022/12/25 05:23:57;;;;;;;3.70;3.10;;;9.80;99.90;;;;;;5114382;28;20449;-55
2022/12/25 05:26:26;;;;;;;3.73;3.43;;;9.70;99.90;;;;;;5114483;28;20534;-55
2022/12/25 05:28:54;;;;;;;4.47;3.73;;;9.80;99.90;;;;;;5114457;28;20500;-55
2022/12/25 05:31:23;;;;;;;3.70;3.40;;;9.70;99.90;;;;;;5114080;28;20464;-55
2022/12/25 05:33:51;;;;;;;6.70;3.43;;;9.70;99.90;;;;;;5114490;28;20453;-55
2022/12/25 05:36:18;;;;;;;4.27;3.33;;;9.70;99.90;;;;;;5114176;28;20507;-55
2022/12/25 05:38:45;;;;;;;3.90;3.47;;;9.70;99.90;;;;;;5114000;28;20451;-55
2022/12/25 05:41:12;;;;;;;3.83;3.33;;;9.70;99.90;;;;;;5113593;28;20470;-55
2022/12/25 05:43:39;;;;;;;3.73;2.90;;;9.70;99.90;;;;;;5114385;28;20431;-55
2022/12/25 05:46:08;;;;;;;4.47;3.50;;;9.70;99.90;;;;;;5113940;28;20529;-55
2022/12/25 05:48:37;;;;;;;3.50;3.20;;;9.80;99.90;;;;;;5113875;28;20474;-55
2022/12/25 05:51:05;;;;;;;5.40;3.93;;;9.70;99.90;;;;;;5113792;28;20990;-55
2022/12/25 05:53:33;;;;;;;3.90;3.57;;;9.70;99.90;;;;;;5113925;28;20481;-55
2022/12/25 05:56:02;;;;;;;4.00;3.60;;;9.60;99.90;;;;;;5113794;28;20446;-55
2022/12/25 05:58:29;;;;;;;4.40;4.00;;;9.60;99.90;;;;;;5113845;28;20458;-55
2022/12/25 06:00:56;;;;;;;6.43;3.37;;;9.60;99.90;;;;;;5114016;28;20488;-55
2022/12/25 06:03:23;;;;;;;4.80;3.83;;;9.70;99.90;;;;;;5114107;28;20449;-55
2022/12/25 06:05:52;;;;;;;4.20;3.90;;;9.70;99.90;;;;;;5113786;28;20456;-54
2022/12/25 06:08:19;;;;;;;3.80;3.50;;;9.70;99.90;;;;;;5114055;28;20461;-55
2022/12/25 06:10:46;;;;;;;7.07;3.70;;;9.70;99.90;;;;;;5113808;28;20519;-55
2022/12/25 06:13:14;;;;;;;4.73;3.90;;;9.70;99.90;;;;;;5113914;28;20438;-55
2022/12/25 06:15:41;;;;;;;4.33;3.87;;;9.60;99.90;;;;;;5113630;28;20446;-55
2022/12/25 06:18:09;;;;;;;4.13;3.63;;;9.70;99.90;;;;;;5113893;28;20442;-55
2022/12/25 06:20:36;;;;;;;4.17;3.77;;;9.70;99.90;;;;;;5113549;28;20467;-55
2022/12/25 06:23:04;;;;;;;3.63;3.33;;;9.70;99.90;;;;;;5113529;28;20478;-55
2022/12/25 06:25:32;;;;;;;6.60;4.53;;;9.80;99.90;;;;;;5113896;28;20447;-55
2022/12/25 06:27:59;;;;;;;4.23;3.70;;;9.80;99.90;;;;;;5113794;28;20455;-55
2022/12/25 06:30:26;;;;;;;4.10;3.70;;;9.80;99.90;;;;;;5113691;28;20492;-55
2022/12/25 06:32:53;;;;;;;5.60;3.00;;;9.80;99.90;;;;;;5117246;28;20946;-54
2022/12/25 06:35:20;;;;;;;3.40;3.10;;;9.80;99.90;;;;;;5117558;28;20453;-55
2022/12/25 06:37:47;;;;;;;3.50;3.20;;;9.80;99.90;;;;;;5117646;28;20454;-54
2022/12/25 06:40:16;;;;;;;4.17;3.77;;;9.80;99.90;;;;;;5117364;28;20469;-56
2022/12/25 06:42:43;;;;;;;3.37;3.07;;;9.80;99.90;;;;;;5117280;28;20476;-56
2022/12/25 06:45:11;;;;;;;3.40;3.10;;;9.80;99.90;;;;;;5117379;28;21019;-55
2022/12/25 06:47:38;;;;;;;3.77;3.47;;;9.80;99.90;;;;;;5117510;28;20469;-56
2022/12/25 06:50:07;;;;;;;3.20;3.00;;;9.90;99.90;;;;;;5117129;28;20488;-54
2022/12/25 06:52:34;;;;;;;3.90;3.60;;;9.90;99.90;;;;;;5117232;28;20488;-54
2022/12/25 06:55:01;;;;;;;5.43;3.40;;;9.90;99.90;;;;;;5117160;28;20446;-55
2022/12/25 06:57:30;;;;;;;4.80;2.77;;;9.90;99.90;;;;;;5117073;28;20500;-55
2022/12/25 06:59:57;;;;;;;3.40;3.10;;;10.00;99.90;;;;;;5117052;28;20466;-55
2022/12/25 07:02:24;;;;;;;4.53;2.90;;;10.00;99.90;;;;;;5116995;28;20933;-55
2022/12/25 07:04:53;;;;;;;4.90;3.10;;;10.00;99.90;;;;;;5117324;28;20446;-55
2022/12/25 07:07:22;;;;;;;2.90;2.60;;;10.00;99.90;;;;;;5117145;28;20451;-55
2022/12/25 07:09:49;;;;;;;3.90;2.80;;;9.90;99.90;;;;;;5116954;28;20492;-55
2022/12/25 07:12:19;;;;;;;3.83;2.97;;;9.90;99.90;;;;;;5117239;28;20470;-55
2022/12/25 07:14:48;;;;;;;2.97;2.73;;;9.90;99.90;;;;;;5117192;28;20453;-55
2022/12/25 07:17:16;;;;;;;2.50;2.37;;;9.90;99.90;;;;;;5116734;28;20495;-55
2022/12/25 07:19:43;;;;;;;3.07;2.87;;;9.90;99.90;;;;;;5116986;28;20458;-55
2022/12/25 07:22:10;;;;;;;3.30;3.00;;;9.90;99.90;;;;;;5116988;28;20529;-55
2022/12/25 07:24:37;;;;;;;3.70;2.97;;;9.90;99.90;;;;;;5116646;28;20453;-55
2022/12/25 07:27:04;;;;;;;4.70;2.80;;;10.00;99.90;;;;;;5116963;28;20785;-55
2022/12/25 07:29:32;;;;;;;3.30;2.40;;;10.00;99.90;;;;;;5116438;28;21055;-55
2022/12/25 07:32:00;;;;;;;3.03;2.63;;;10.00;99.90;;;;;;5116522;28;20443;-55
2022/12/25 07:34:28;;;;;;;4.17;2.63;;;10.00;99.90;;;;;;5116692;28;20450;-55
2022/12/25 07:36:55;;;;;;;3.20;2.73;;;9.90;99.90;;;;;;5116453;28;20435;-55
2022/12/25 07:39:23;;;;;;;2.83;2.50;;;9.90;99.90;;;;;;5116486;28;20465;-55
2022/12/25 07:41:50;;;;;;;3.10;2.80;;;9.90;99.90;;;;;;5116355;28;20489;-55
2022/12/25 07:44:17;;;;;;;3.13;2.83;;;10.00;99.90;;;;;;5115275;28;20434;-55
2022/12/25 07:46:48;;;;;;;3.73;2.70;;;10.00;99.90;;;;;;5116231;28;20431;-55
2022/12/25 07:49:17;;;;;;;3.27;2.97;;;10.10;99.90;;;;;;5116299;28;20489;-55
2022/12/25 07:51:44;;;;;;;3.67;3.30;;;10.10;99.90;;;;;;5116110;28;20515;-55
2022/12/25 07:54:11;;;;;;;3.00;2.70;;;10.00;99.90;;;;;;5116002;28;20456;-55
2022/12/25 07:56:38;;;;;;;3.47;3.10;;;10.10;99.90;;;;;;5116319;28;20447;-55
2022/12/25 07:59:05;;;;;;;3.90;3.60;;;10.00;99.90;;;;;;5115835;28;20932;-55
2022/12/25 08:01:32;;;;;;;4.00;3.57;;;10.10;99.90;;;;;;5116281;28;20538;-55
2022/12/25 08:04:00;;;;;;;3.70;3.40;;;10.10;99.90;;;;;;5116136;28;20442;-55
2022/12/25 08:06:31;;;;;;;5.23;4.00;;;10.10;99.90;;;;;;5116144;28;20448;-55
2022/12/25 08:09:04;;;;;;;3.47;3.17;;;10.20;99.90;;;;;;5116137;28;20463;-55
2022/12/25 08:11:31;;;;;;;4.20;3.53;;;10.10;99.90;;;;;;5116065;28;20438;-55
2022/12/25 08:13:58;;;;;;;3.60;3.30;;;10.10;99.90;;;;;;5115567;28;20446;-55
2022/12/25 08:16:25;;;;;;;3.93;3.30;;;10.10;99.90;;;;;;5115665;28;20446;-55
2022/12/25 08:18:53;;;;;;;3.60;3.20;;;10.10;99.90;;;;;;5115546;28;20805;-55
2022/12/25 08:21:20;;;;;;;3.80;3.50;;;10.00;99.90;;;;;;5115480;28;20467;-55
2022/12/25 08:23:49;;;;;;;3.80;3.13;;;10.00;99.90;;;;;;5115397;28;20929;-55
2022/12/25 08:26:19;;;;;;;4.03;3.60;;;10.00;99.90;;;;;;5115438;28;20958;-55
2022/12/25 08:28:47;;;;;;;3.27;2.67;;;10.00;99.90;;;;;;5115684;28;20434;-55
2022/12/25 08:31:16;;;;;;;4.03;3.67;;;10.00;99.90;;;;;;5115528;28;20494;-55
2022/12/25 08:33:44;;;;;;;2.87;2.67;;;9.90;99.90;;;;;;5115501;28;20470;-55
2022/12/25 08:36:13;;;;;;;3.20;2.90;;;10.10;99.90;;;;;;5115524;28;20455;-55
2022/12/25 08:38:40;;;;;;;3.27;2.97;;;10.10;99.90;;;;;;5115695;28;20461;-55
2022/12/25 08:41:10;;;;;;;2.97;2.70;;;10.20;99.90;;;;;;5114895;28;20473;-55
2022/12/25 08:43:37;;;;;;;3.10;2.90;;;10.30;99.90;;;;;;5115409;28;20427;-55
2022/12/25 08:46:05;;;;;;;2.90;2.40;;;10.40;99.90;;;;;;5115113;28;20514;-55
2022/12/25 08:48:32;;;;;;;3.30;2.97;;;10.40;99.90;;;;;;5114907;28;20933;-55
2022/12/25 08:51:00;;;;;;;3.17;2.87;;;10.50;99.90;;;;;;5114812;28;20576;-55
2022/12/25 08:53:27;;;;;;;3.20;2.90;;;10.50;99.90;;;;;;5115059;28;20443;-55
2022/12/25 08:55:58;;;;;;;3.87;2.87;;;10.50;99.90;;;;;;5115032;28;20539;-55
2022/12/25 08:58:27;;;;;;;3.77;3.47;;;10.50;99.90;;;;;;5115098;28;20450;-55
2022/12/25 09:00:54;;;;;;;3.80;3.50;;;10.50;99.90;;;;;;5114668;28;20469;-55
2022/12/25 09:03:21;;;;;;;3.77;3.47;;;10.60;99.90;;;;;;5114698;28;20928;-55
2022/12/25 09:05:49;;;;;;;3.13;2.93;;;10.50;99.90;;;;;;5114992;28;20525;-55
2022/12/25 09:08:16;;;;;;;3.33;3.03;;;10.60;99.90;;;;;;5114883;28;20457;-55
2022/12/25 09:10:43;;;;;;;4.03;3.27;;;10.60;99.90;;;;;;5114408;28;20484;-55
2022/12/25 09:13:10;;;;;;;3.67;3.33;;;10.60;99.90;;;;;;5114821;28;20439;-55
2022/12/25 09:15:40;;;;;;;3.20;2.90;;;10.60;99.90;;;;;;5114469;28;20453;-55
2022/12/25 09:18:07;;;;;;;6.43;4.10;;;10.60;99.90;;;;;;5114457;28;20438;-55
2022/12/25 09:20:34;;;;;;;4.00;3.50;;;10.60;99.90;;;;;;5114252;28;20566;-55
2022/12/25 09:23:01;;;;;;;3.60;2.90;;;10.60;99.90;;;;;;5114299;28;20447;-55
2022/12/25 09:25:28;;;;;;;3.20;3.00;;;10.60;99.90;;;;;;5114549;28;20446;-55
2022/12/25 09:27:56;;;;;;;3.93;3.63;;;10.60;99.90;;;;;;5114581;28;20474;-55
2022/12/25 09:30:27;;;;;;;4.07;3.67;;;10.60;99.90;;;;;;5114032;28;20839;-55
2022/12/25 09:32:56;;;;;;;3.60;3.30;;;10.60;99.90;;;;;;5114197;28;20449;-54
2022/12/25 09:35:23;;;;;;;4.60;4.20;;;10.60;99.90;;;;;;5114356;28;20453;-55
2022/12/25 09:37:50;;;;;;;3.70;3.40;;;10.70;99.90;;;;;;5114449;28;20454;-55
2022/12/25 09:40:21;;;;;;;5.00;3.30;;;10.80;99.90;;;;;;5113865;28;20466;-55
2022/12/25 09:42:49;;;;;;;3.70;3.40;;;10.80;99.90;;;;;;5113973;28;20528;-55
2022/12/25 09:45:24;;;;;;;5.20;3.40;;;10.80;99.90;;;;;;5114000;28;20443;-55
2022/12/25 09:47:53;;;;;;;3.40;3.03;;;10.80;99.90;;;;;;5113993;28;20426;-55
2022/12/25 09:50:29;;;;;;;3.83;3.07;;;10.90;99.90;;;;;;5114078;28;20487;-55
2022/12/25 09:53:02;;;;;;;3.67;2.77;;;10.90;99.90;;;;;;5113995;28;20513;-55
2022/12/25 09:55:33;;;;;;;2.80;2.60;;;11.00;99.90;;;;;;5113887;28;20901;-55
2022/12/25 09:58:02;;;;;;;2.63;2.43;;;11.10;99.90;;;;;;5114143;28;20789;-55
2022/12/25 10:00:34;;;;;;;3.07;2.70;;;11.20;99.90;;;;;;5114054;28;20469;-55
2022/12/25 10:03:32;;;;;;;3.47;3.23;;;11.20;99.90;;;;;;5114083;28;20427;-55
2022/12/25 10:06:13;;;;;;;3.40;2.80;;;11.20;99.90;;;;;;5099656;28;20462;-55
2022/12/25 10:09:02;;;;;;;3.40;2.87;;;11.30;99.90;;;;;;5114195;28;20457;-55
2022/12/25 10:11:41;;;;;;;3.47;3.20;;;11.40;99.90;;;;;;5113907;28;20471;-55
2022/12/25 10:14:20;;;;;;;3.90;3.57;;;11.50;99.90;;;;;;5113585;28;20427;-55
2022/12/25 10:16:57;;;;;;;3.57;3.20;;;11.50;99.90;;;;;;5113981;28;20517;-55
2022/12/25 10:19:34;;;;;;;4.07;3.73;;;11.60;99.90;;;;;;5113892;28;20545;-55
2022/12/25 10:22:10;;;;;;;3.73;3.40;;;11.70;99.90;;;;;;5113997;28;20426;-56
2022/12/25 10:24:43;;;;;;;4.90;3.93;;;11.90;99.90;;;;;;5113837;28;20423;-55
2022/12/25 10:27:17;;;;;;;3.90;3.60;;;11.90;99.90;;;;;;5113967;28;20454;-55
2022/12/25 10:29:47;;;;;;;4.93;3.40;;;12.00;99.90;;;;;;5113327;28;20465;-55
2022/12/25 10:32:14;;;;;;;4.53;4.13;;;12.10;99.90;;;;;;5113499;28;20450;-55
2022/12/25 10:34:42;;;;;;;4.07;3.70;;;12.10;99.90;;;;;;5113793;28;20802;-55
2022/12/25 10:37:12;;;;;;;4.10;3.70;;;12.20;99.90;;;;;;5113465;28;20527;-55
2022/12/25 10:39:39;;;;;;;3.37;3.00;;;12.50;99.90;;;;;;5113244;28;20818;-55
2022/12/25 10:42:34;;;;;;;3.40;3.10;;;13.00;99.90;;;;;;5113116;28;20838;-55
2022/12/25 10:45:04;;;;;;;3.23;2.93;;;13.50;99.90;;;;;;5113471;28;20897;-55
2022/12/25 10:47:33;;;;;;;3.63;3.23;;;14.00;99.90;;;;;;5113635;28;20466;-55
2022/12/25 10:50:07;;;;;;;3.67;3.20;;;14.50;99.90;;;;;;5113224;28;20560;-56
2022/12/25 10:52:46;;;;;;;6.53;3.47;;;15.30;99.90;;;;;;5113404;28;20412;-56
2022/12/25 10:55:19;;;;;;;3.60;2.97;;;15.70;99.90;;;;;;5113683;28;20434;-55
2022/12/25 10:57:46;;;;;;;3.03;2.73;;;;;;;;;;5113545;28;20431;-56
2022/12/25 11:00:21;;;;;;;3.43;3.13;;;16.70;99.90;;;;;;5113478;28;20852;-56
2022/12/25 11:02:49;;;;;;;3.50;3.03;;;16.70;99.90;;;;;;5113314;28;20430;-55
2022/12/25 11:05:30;;;;;;;3.27;2.80;;;16.70;99.90;;;;;;5113451;28;20443;-55
2022/12/25 11:08:01;;;;;;;6.40;3.40;;;16.30;99.90;;;;;;5113608;28;20477;-56
2022/12/25 11:10:31;;;;;;;3.43;3.13;;;16.00;99.90;;;;;;5113262;28;20994;-56
2022/12/25 11:12:59;;;;;;;4.33;2.80;;;15.80;99.90;;;;;;5113410;28;20473;-56
2022/12/25 11:15:36;;;;;;;3.20;2.90;;;15.60;99.90;;;;;;5113152;28;20461;-55
2022/12/25 11:18:04;;;;;;;3.40;2.90;;;15.50;99.90;;;;;;5114008;28;20427;-55
2022/12/25 11:20:32;;;;;;;3.20;3.00;;;15.40;99.90;;;;;;5116976;28;20532;-55
2022/12/25 11:23:00;;;;;;;3.50;2.90;;;15.40;99.90;;;;;;5116827;28;20912;-56
2022/12/25 11:25:28;;;;;;;3.30;2.60;;;15.90;99.90;;;;;;5116901;28;20442;-56
2022/12/25 11:28:00;;;;;;;3.70;2.80;;;16.50;99.90;;;;;;5116570;28;20445;-55
2022/12/25 11:30:29;;;;;;;2.47;2.27;;;16.40;99.90;;;;;;5116393;28;20482;-56
2022/12/25 11:33:00;;;;;;;2.70;2.50;;;16.10;99.90;;;;;;5116408;28;20447;-55
2022/12/25 11:35:32;;;;;;;5.63;2.60;;;16.10;99.90;;;;;;5116536;28;20437;-55
2022/12/25 11:38:00;;;;;;;3.10;2.80;;;16.00;99.90;;;;;;5116778;28;20534;-55
2022/12/25 11:40:41;;;;;;;2.00;1.90;;;16.10;99.90;;;;;;5116415;28;20463;-55
2022/12/25 11:43:13;;;;;;;2.53;2.33;;;16.10;99.90;;;;;;5116049;28;20485;-55
2022/12/25 11:45:45;;;;;;;2.50;2.30;;;16.00;99.90;;;;;;5116307;28;20426;-55
2022/12/25 11:48:17;;;;;;;2.90;2.70;;;15.50;99.90;;;;;;5116463;28;20534;-56
2022/12/25 11:50:47;;;;;;;3.00;2.70;;;15.80;99.90;;;;;;5115977;28;20487;-55
2022/12/25 11:53:20;;;;;;;2.77;2.27;;;15.80;99.90;;;;;;5116097;28;20784;-55
2022/12/25 11:55:53;;;;;;;2.63;2.43;;;15.90;99.90;;;;;;5116343;28;20433;-55
2022/12/25 11:58:25;;;;;;;2.60;2.40;;;15.70;99.90;;;;;;5116062;28;20984;-55
2022/12/25 12:00:55;;;;;;;2.73;2.53;;;15.60;99.90;;;;;;5115814;28;20541;-55
2022/12/25 12:03:25;;;;;;;2.70;2.50;;;15.50;99.90;;;;;;5115953;28;20470;-55
2022/12/25 12:05:58;;;;;;;2.77;2.47;;;15.40;99.90;;;;;;5115861;28;20473;-55
2022/12/25 12:08:26;;;;;;;3.37;2.60;;;15.40;99.90;;;;;;5116161;28;20454;-55
2022/12/25 12:11:14;;;;;;;2.93;2.37;;;15.40;99.90;;;;;;5115588;28;20481;-55
2022/12/25 12:14:00;;;;;;;3.20;2.50;;;15.60;99.90;;;;;;5115987;28;20434;-55
2022/12/25 12:16:28;;;;;;;4.70;2.50;;;15.90;99.90;;;;;;5112555;28;20446;-55
2022/12/25 12:18:55;;;;;;;3.03;2.40;;;15.90;99.90;;;;;;5115478;28;20446;-55
2022/12/25 12:21:24;;;;;;;3.47;2.43;;;16.00;99.90;;;;;;5115460;28;20554;-55
2022/12/25 12:23:56;;;;;;;3.77;2.70;;;15.90;99.90;;;;;;5115376;28;20533;-55
2022/12/25 12:26:25;;;;;;;2.83;2.53;;;15.80;99.90;;;;;;5115403;28;20890;-55
2022/12/25 12:28:55;;;;;;;2.60;2.40;;;15.90;99.90;;;;;;5114818;28;20492;-55
2022/12/25 12:31:22;;;;;;;3.23;2.80;;;15.70;99.90;;;;;;5115515;28;20486;-55
2022/12/25 12:33:52;;;;;;;2.70;2.50;;;15.70;99.90;;;;;;5115239;28;20933;-55
2022/12/25 12:36:25;;;;;;;2.93;2.60;;;15.70;99.90;;;;;;5115139;28;20541;-55
2022/12/25 12:38:56;;;;;;;20.27;3.57;;;15.60;99.90;;;;;;5115590;28;20458;-56
2022/12/25 12:41:38;;;;;;;3.50;2.90;;;15.50;99.90;;;;;;5114706;28;20477;-55
2022/12/25 12:44:06;;;;;;;3.03;2.00;;;15.50;99.90;;;;;;5114846;28;20434;-55
2022/12/25 12:46:38;;;;;;;3.33;2.87;;;15.60;99.90;;;;;;5115050;28;20533;-55
2022/12/25 12:49:17;;;;;;;2.50;2.30;;;15.70;99.90;;;;;;5115073;28;20438;-55
2022/12/25 12:51:44;;;;;;;3.00;2.53;;;15.90;99.90;;;;;;5114941;28;20477;-55
2022/12/25 12:54:20;;;;;;;2.50;2.30;;;16.20;99.90;;;;;;5114789;28;20446;-55
2022/12/25 12:56:58;;;;;;;3.90;3.47;;;16.40;99.90;;;;;;5114709;28;20772;-55
2022/12/25 12:59:26;;;;;;;3.50;2.77;;;16.40;99.90;;;;;;5114670;28;20466;-55
2022/12/25 13:02:05;;;;;;;2.70;2.20;;;16.30;99.90;;;;;;5114699;28;20794;-55
2022/12/25 13:04:52;;;;;;;2.77;2.57;;;16.30;99.90;;;;;;5115014;28;20431;-55
2022/12/25 13:07:42;;;;;;;3.20;2.90;;;16.40;99.90;;;;;;5114619;28;20450;-55
2022/12/25 13:10:20;;;;;;;2.60;2.10;;;16.20;99.90;;;;;;5114639;28;20469;-55
2022/12/25 13:12:53;;;;;;;3.10;2.80;;;16.20;99.90;;;;;;5114286;28;20466;-55
2022/12/25 13:15:23;;;;;;;2.20;1.93;;;16.20;99.90;;;;;;5114279;28;20974;-55
2022/12/25 13:17:50;;;;;;;3.27;2.87;;;16.20;99.90;;;;;;5114492;28;20779;-55
2022/12/25 13:20:24;;;;;;;2.73;2.20;;;16.40;99.90;;;;;;5114183;28;20467;-55
2022/12/25 13:22:51;;;;;;;2.20;2.00;;;16.70;99.90;;;;;;5114623;28;20526;-55
2022/12/25 13:25:22;;;;;;;3.60;2.80;;;16.80;99.90;;;;;;5114445;28;20447;-55
2022/12/25 13:27:56;;;;;;;2.57;2.13;;;17.00;99.90;;;;;;5114369;28;20434;-55
2022/12/25 13:30:24;;;;;;;3.70;2.17;;;17.00;99.90;;;;;;5114242;28;20997;-56
2022/12/25 13:32:51;;;;;;;2.53;2.33;;;17.00;99.90;;;;;;5113887;28;20478;-56
2022/12/25 13:35:21;;;;;;;2.50;2.30;;;16.70;99.90;;;;;;5114438;28;20534;-55
2022/12/25 13:37:48;;;;;;;3.20;2.60;;;16.60;99.90;;;;;;5114280;28;20793;-55
2022/12/25 13:40:24;;;;;;;2.53;2.33;;;16.50;99.90;;;;;;5113788;28;20471;-55
2022/12/25 13:42:56;;;;;;;2.63;2.40;;;16.50;99.90;;;;;;5113702;28;20469;-54
2022/12/25 13:45:26;;;;;;;5.73;2.47;;;16.40;99.90;;;;;;5114041;28;20851;-54
2022/12/25 13:47:54;;;;;;;3.60;2.60;;;16.30;99.90;;;;;;5114539;28;20526;-54
2022/12/25 13:50:24;;;;;;;2.40;2.20;;;16.10;99.90;;;;;;5113879;28;20463;-55
2022/12/25 13:52:52;;;;;;;2.70;2.50;;;16.00;99.90;;;;;;5113720;28;20516;-55
2022/12/25 13:55:23;;;;;;;4.40;3.40;;;15.90;99.90;;;;;;5114121;28;20534;-55
2022/12/25 13:57:53;;;;;;;2.77;2.43;;;15.80;99.90;;;;;;5114017;28;20446;-55
2022/12/25 14:00:22;;;;;;;4.73;3.87;;;15.80;99.90;;;;;;5114010;28;20545;-55
2022/12/25 14:02:51;;;;;;;3.80;2.40;;;15.70;99.90;;;;;;5113616;28;20449;-55
2022/12/25 14:05:27;;;;;;;4.80;3.07;;;15.60;99.90;;;;;;5113952;28;20512;-55
2022/12/25 14:07:56;;;;;;;2.50;2.30;;;15.60;99.90;;;;;;5114063;28;20545;-55
2022/12/25 14:10:28;;;;;;;2.57;2.37;;;15.50;99.90;;;;;;5113536;28;20472;-55
2022/12/25 14:12:58;;;;;;;2.50;2.30;;;15.50;99.90;;;;;;5113759;28;20471;-55
2022/12/25 14:15:28;;;;;;;2.93;2.30;;;15.50;99.90;;;;;;5113988;28;20427;-55
2022/12/25 14:17:55;;;;;;;3.00;2.50;;;15.50;99.90;;;;;;5113943;28;20485;-55
2022/12/25 14:20:25;;;;;;;3.43;2.63;;;15.40;99.90;;;;;;5113858;28;20831;-55
2022/12/25 14:22:54;;;;;;;4.40;2.70;;;15.40;99.90;;;;;;5113808;28;20443;-55
2022/12/25 14:25:23;;;;;;;2.30;2.10;;;15.30;99.90;;;;;;5113779;28;20489;-55
2022/12/25 14:27:53;;;;;;;3.10;2.80;;;15.30;99.90;;;;;;5113872;28;20484;-55
2022/12/25 14:30:20;;;;;;;6.33;2.80;;;15.20;99.90;;;;;;5113379;28;20553;-55
2022/12/25 14:32:50;;;;;;;2.43;2.10;;;15.20;99.90;;;;;;5113451;28;20481;-55
2022/12/25 14:35:19;;;;;;;5.70;4.77;;;15.10;99.90;;;;;;5113416;28;20435;-55
2022/12/25 14:37:56;;;;;;;4.07;2.73;;;15.00;99.90;;;;;;5113437;28;20465;-55
2022/12/25 14:40:27;;;;;;;3.30;3.00;;;14.90;99.90;;;;;;5113590;28;20466;-55
2022/12/25 14:43:00;;;;;;;11.97;7.13;;;14.80;99.90;;;;;;5113359;28;20478;-55
2022/12/25 14:45:31;;;;;;;15.77;9.77;;;14.60;99.90;;;;;;5113649;28;20423;-55
2022/12/25 14:48:01;;;;;;;4.70;4.10;;;14.50;99.90;;;;;;5113656;28;20450;-55
2022/12/25 14:50:31;;;;;;;4.77;4.13;;;14.20;99.90;;;;;;5113539;28;20862;-55